Time;durP1;ratioP1;P1;durP2;ratioP2;P2;SDS_P1;SDS_P2;PMS_P1;PMS_P2;Temp;Humidity;BMP_temperature;BMP_pressure;BME280_temperature;BME280_humidity;BME280_pressure;Samples;Min_cycle;Max_cycle;Signal;HPM_P1;HPM_P2
2024/03/16 00:02:54;;;;;;;;;;;;;;;16.38;42.23;98596.10;68302;1283;1016241;-68
2024/03/16 00:05:57;;;;;;;;;;;;;;;16.04;42.99;98595.70;68308;1283;1016066;-68
2024/03/16 00:08:59;;;;;;;;;;;;;;;16.31;42.46;98601.15;68302;1283;1016499;-68
2024/03/16 00:12:02;;;;;;;;;;;;;;;16.25;42.52;98596.71;68325;1283;1016539;-68
2024/03/16 00:15:04;;;;;;;;;;;;;;;16.16;42.80;98598.23;68311;1283;1015758;-68
2024/03/16 00:18:07;;;;;;;;;;;;;;;16.16;42.82;98593.98;68309;1283;1015753;-67
2024/03/16 00:21:10;;;;;;;;;;;;;;;15.79;43.49;98597.36;68306;1282;1015513;-69
2024/03/16 00:24:13;;;;;;;;;;;;;;;15.94;43.31;98590.23;68318;1283;1016112;-69
2024/03/16 00:27:16;;;;;;;;;;;;;;;15.79;43.56;98592.38;68301;1283;1015971;-69
2024/03/16 00:30:19;;;;;;;;;;;;;;;16.03;43.40;98588.92;68315;1283;1015453;-68
2024/03/16 00:33:22;;;;;;;;;;;;;;;16.24;42.88;98583.02;68304;1283;1015968;-68
2024/03/16 00:36:25;;;;;;;;;;;;;;;16.39;42.64;98579.27;68297;1283;1015486;-64
2024/03/16 00:39:28;;;;;;;;;;;;;;;16.44;42.59;98575.08;68291;1283;1015783;-68
2024/03/16 00:42:31;;;;;;;;;;;;;;;16.47;42.66;98576.14;68314;1283;1016148;-68
2024/03/16 00:45:34;;;;;;;;;;;;;;;16.57;42.45;98572.86;68300;1282;1015722;-68
2024/03/16 00:48:36;;;;;;;;;;;;;;;16.76;42.14;98573.09;68302;1283;1015802;-68
2024/03/16 00:51:40;;;;;;;;;;;;;;;16.67;42.33;98568.35;68306;1283;1016032;-68
2024/03/16 00:54:43;;;;;;;;;;;;;;;16.37;42.85;98566.25;68301;1283;1015936;-68
2024/03/16 00:57:45;;;;;;;;;;;;;;;16.29;42.99;98567.09;68320;1283;1015327;-68
2024/03/16 01:00:48;;;;;;;;;;;;;;;16.29;43.01;98560.35;68323;1283;1016423;-69
2024/03/16 01:03:50;;;;;;;;;;;;;;;16.54;42.36;98561.56;68319;1283;1015486;-68
2024/03/16 01:06:53;;;;;;;;;;;;;;;16.50;42.49;98562.59;68314;1283;1015502;-68
2024/03/16 01:09:56;;;;;;;;;;;;;;;16.49;42.56;98561.26;68318;1283;1015492;-67
2024/03/16 01:12:58;;;;;;;;;;;;;;;16.63;42.31;98558.23;68315;1283;1015411;-68
2024/03/16 01:16:01;;;;;;;;;;;;;;;16.69;42.19;98558.27;68307;1282;1015900;-68
2024/03/16 01:19:04;;;;;;;;;;;;;;;16.82;41.96;98555.50;68319;1283;1016070;-63
2024/03/16 01:22:06;;;;;;;;;;;;;;;16.51;42.40;98553.68;68311;1283;1015700;-68
2024/03/16 01:25:09;;;;;;;;;;;;;;;16.32;42.67;98550.39;68314;1283;1015201;-68
2024/03/16 01:28:12;;;;;;;;;;;;;;;16.34;42.81;98548.84;68299;1283;1015771;-64
2024/03/16 01:31:14;;;;;;;;;;;;;;;16.22;42.88;98542.68;68312;1283;1016188;-66
2024/03/16 01:34:17;;;;;;;;;;;;;;;16.25;42.65;98539.58;68312;1283;1015802;-68
2024/03/16 01:37:20;;;;;;;;;;;;;;;16.23;42.67;98544.34;68307;1283;1015480;-68
2024/03/16 01:40:25;;;;;;;;;;;;;;;16.10;42.59;98542.13;68315;1283;1015128;-68
2024/03/16 01:43:28;;;;;;;;;;;;;;;16.02;42.59;98541.62;68303;1283;1016158;-69
2024/03/16 01:46:31;;;;;;;;;;;;;;;15.90;42.85;98541.91;68297;1283;1015482;-68
2024/03/16 01:49:33;;;;;;;;;;;;;;;15.88;42.64;98541.58;68315;1282;1015408;-68
2024/03/16 01:52:35;;;;;;;;;;;;;;;16.09;42.45;98542.74;68304;1283;1015676;-68
2024/03/16 01:55:38;;;;;;;;;;;;;;;16.17;42.28;98547.16;68312;1283;1016126;-68
2024/03/16 01:58:45;;;;;;;;;;;;;;;16.18;42.41;98547.24;68310;1283;1015368;-69
2024/03/16 02:01:47;;;;;;;;;;;;;;;15.94;42.55;98549.67;68315;1283;1015731;-68
2024/03/16 02:04:50;;;;;;;;;;;;;;;16.18;41.88;98537.90;68307;1283;1016499;-69
2024/03/16 02:07:52;;;;;;;;;;;;;;;16.02;42.08;98549.55;68304;1283;1015670;-68
2024/03/16 02:10:55;;;;;;;;;;;;;;;15.88;42.17;98545.58;68322;1283;1015703;-68
2024/03/16 02:13:57;;;;;;;;;;;;;;;15.57;42.58;98549.65;68312;1283;1015966;-68
2024/03/16 02:17:00;;;;;;;;;;;;;;;15.55;42.39;98545.42;68304;1283;1016521;-69
2024/03/16 02:20:04;;;;;;;;;;;;;;;15.31;42.82;98543.63;68310;1283;1015868;-68
2024/03/16 02:23:06;;;;;;;;;;;;;;;15.27;42.86;98547.14;68301;1283;1015301;-68
2024/03/16 02:26:10;;;;;;;;;;;;;;;15.21;43.07;98551.33;68314;1283;1015982;-68
2024/03/16 02:29:14;;;;;;;;;;;;;;;15.23;43.24;98549.02;68308;1282;1015874;-68
2024/03/16 02:32:17;;;;;;;;;;;;;;;15.21;43.24;98550.27;68300;1283;1016030;-69
2024/03/16 02:35:19;;;;;;;;;;;;;;;15.39;42.84;98552.47;68320;1283;1016386;-65
2024/03/16 02:38:22;;;;;;;;;;;;;;;15.35;42.80;98552.66;68300;1283;1015367;-69
2024/03/16 02:41:25;;;;;;;;;;;;;;;15.40;42.62;98553.11;68300;1283;1015756;-69
2024/03/16 02:44:29;;;;;;;;;;;;;;;15.36;43.02;98551.16;68307;1283;1016030;-69
2024/03/16 02:47:32;;;;;;;;;;;;;;;15.52;42.51;98548.58;68312;1283;1016098;-62
2024/03/16 02:50:34;;;;;;;;;;;;;;;15.43;42.90;98551.98;68311;1283;1015251;-68
2024/03/16 02:53:37;;;;;;;;;;;;;;;15.54;42.45;98546.52;68300;1283;1015648;-68
2024/03/16 02:56:39;;;;;;;;;;;;;;;15.52;42.45;98544.98;68311;1283;1016056;-68
2024/03/16 02:59:42;;;;;;;;;;;;;;;15.29;42.87;98555.25;68311;1283;1015338;-68
2024/03/16 03:02:44;;;;;;;;;;;;;;;15.40;42.71;98552.55;68300;1283;1015729;-69
2024/03/16 03:05:47;;;;;;;;;;;;;;;15.48;42.54;98552.90;68309;1283;1016189;-68
2024/03/16 03:08:50;;;;;;;;;;;;;;;15.60;42.44;98549.48;68308;1283;1016109;-68
2024/03/16 03:11:52;;;;;;;;;;;;;;;15.58;42.72;98542.88;68313;1283;1015399;-68
2024/03/16 03:14:55;;;;;;;;;;;;;;;15.77;42.55;98547.98;68306;1283;1015250;-68
2024/03/16 03:17:58;;;;;;;;;;;;;;;16.01;42.34;98547.85;68306;1283;1015947;-68
2024/03/16 03:21:00;;;;;;;;;;;;;;;16.14;42.32;98554.52;68311;1283;1015226;-68
2024/03/16 03:24:03;;;;;;;;;;;;;;;16.21;42.38;98550.02;68308;1283;1016058;-68
2024/03/16 03:27:05;;;;;;;;;;;;;;;16.31;42.22;98552.64;68314;1283;1016102;-68
2024/03/16 03:30:08;;;;;;;;;;;;;;;16.41;42.13;98552.13;68301;1283;1015457;-64
2024/03/16 03:33:11;;;;;;;;;;;;;;;16.32;42.27;98554.48;68329;1283;1015575;-68
2024/03/16 03:36:13;;;;;;;;;;;;;;;16.23;42.50;98554.60;68303;1283;1016114;-68
2024/03/16 03:39:16;;;;;;;;;;;;;;;16.25;42.32;98551.33;68317;1283;1016793;-68
2024/03/16 03:42:19;;;;;;;;;;;;;;;16.14;42.53;98555.89;68317;1283;1016089;-69
2024/03/16 03:45:37;;;;;;;;;;;;;;;16.30;42.22;98555.54;68300;1283;1015695;-68
2024/03/16 03:48:49;;;;;;;;;;;;;;;16.23;42.24;98555.09;68298;1283;1016696;-68
2024/03/16 03:51:53;;;;;;;;;;;;;;;16.24;42.37;98556.61;68295;1283;1016169;-67
2024/03/16 03:54:55;;;;;;;;;;;;;;;16.40;42.10;98561.39;68307;1283;1015958;-67
2024/03/16 03:57:58;;;;;;;;;;;;;;;16.38;42.28;98553.91;68307;1283;1015608;-68
2024/03/16 04:01:00;;;;;;;;;;;;;;;16.58;42.10;98559.73;68315;1283;1015902;-68
2024/03/16 04:04:04;;;;;;;;;;;;;;;16.62;42.17;98560.79;68305;1283;1015934;-68
2024/03/16 04:07:06;;;;;;;;;;;;;;;16.85;41.91;98564.79;68301;1283;1015509;-68
2024/03/16 04:10:09;;;;;;;;;;;;;;;17.11;41.55;98559.77;68318;1283;1015751;-67
2024/03/16 04:13:12;;;;;;;;;;;;;;;17.08;41.49;98555.06;68329;1283;1014775;-68
2024/03/16 04:16:15;;;;;;;;;;;;;;;16.90;41.81;98558.87;68299;1283;1014700;-68
2024/03/16 04:19:17;;;;;;;;;;;;;;;16.87;41.71;98553.66;68321;1283;1015302;-67
2024/03/16 04:22:20;;;;;;;;;;;;;;;16.68;41.90;98554.27;68315;1283;1015845;-68
2024/03/16 04:25:22;;;;;;;;;;;;;;;16.68;41.84;98548.23;68330;1283;1015816;-68
2024/03/16 04:28:25;;;;;;;;;;;;;;;16.51;42.14;98550.81;68299;1283;1016726;-68
2024/03/16 04:31:27;;;;;;;;;;;;;;;16.60;42.27;98547.61;68318;1283;1016366;-68
2024/03/16 04:34:30;;;;;;;;;;;;;;;16.72;42.30;98546.44;68317;1283;1016108;-68
2024/03/16 04:37:33;;;;;;;;;;;;;;;16.91;42.07;98543.23;68316;1283;1015269;-68
2024/03/16 04:40:35;;;;;;;;;;;;;;;17.02;41.81;98535.80;68292;1283;1016121;-68
2024/03/16 04:43:38;;;;;;;;;;;;;;;16.89;42.00;98530.88;68300;1283;1014855;-63
2024/03/16 04:46:41;;;;;;;;;;;;;;;17.12;41.62;98525.94;68306;1283;1015488;-63
2024/03/16 04:49:44;;;;;;;;;;;;;;;17.25;41.44;98531.77;68313;1283;1016116;-68
2024/03/16 04:52:47;;;;;;;;;;;;;;;17.20;41.61;98538.44;68320;1283;1015315;-68
2024/03/16 04:55:50;;;;;;;;;;;;;;;17.33;41.45;98537.24;68305;1283;1015714;-68
2024/03/16 04:58:52;;;;;;;;;;;;;;;17.45;41.31;98542.45;68305;1283;1015275;-68
2024/03/16 05:01:55;;;;;;;;;;;;;;;17.49;41.54;98542.95;68301;1282;1014531;-68
2024/03/16 05:04:57;;;;;;;;;;;;;;;17.59;41.51;98536.40;68319;1283;1015637;-67
2024/03/16 05:08:00;;;;;;;;;;;;;;;17.52;41.58;98543.55;68307;1283;1015406;-68
2024/03/16 05:11:02;;;;;;;;;;;;;;;17.44;41.94;98551.98;68316;1283;1015573;-68
2024/03/16 05:14:06;;;;;;;;;;;;;;;17.16;42.66;98560.52;68311;1283;1016117;-63
2024/03/16 05:17:08;;;;;;;;;;;;;;;17.29;42.55;98560.38;68311;1283;1015817;-68
2024/03/16 05:20:11;;;;;;;;;;;;;;;17.20;42.48;98562.45;68303;1283;1015686;-68
2024/03/16 05:23:14;;;;;;;;;;;;;;;17.29;42.23;98566.20;68307;1283;1015904;-68
2024/03/16 05:26:17;;;;;;;;;;;;;;;17.22;42.62;98570.45;65874;1282;5372556;-68
2024/03/16 05:29:19;;;;;;;;;;;;;;;17.17;42.74;98574.21;68303;1283;1015615;-68
2024/03/16 05:32:22;;;;;;;;;;;;;;;17.19;42.98;98564.00;68303;1283;1015965;-68
2024/03/16 05:35:28;;;;;;;;;;;;;;;17.22;43.11;98570.76;68305;1283;1015267;-68
2024/03/16 05:38:30;;;;;;;;;;;;;;;17.18;43.01;98575.49;68317;1283;1015342;-68
2024/03/16 05:41:32;;;;;;;;;;;;;;;17.20;43.21;98578.72;68300;1283;1014384;-68
2024/03/16 05:44:35;;;;;;;;;;;;;;;17.19;43.25;98578.52;68302;1283;1015856;-67
2024/03/16 05:47:37;;;;;;;;;;;;;;;17.17;43.47;98579.88;68309;1283;1015297;-68
2024/03/16 05:50:40;;;;;;;;;;;;;;;17.28;43.32;98574.59;68307;1283;1015491;-68
2024/03/16 05:53:42;;;;;;;;;;;;;;;17.40;43.17;98573.16;68299;1283;1015167;-68
2024/03/16 05:56:45;;;;;;;;;;;;;;;17.76;42.84;98578.13;68285;1283;1015905;-68
2024/03/16 05:59:48;;;;;;;;;;;;;;;17.80;42.92;98572.24;68314;1283;1015708;-68
2024/03/16 06:02:50;;;;;;;;;;;;;;;18.02;42.95;98569.48;68308;1283;1015354;-68
2024/03/16 06:05:53;;;;;;;;;;;;;;;18.31;42.75;98576.08;68302;1283;1016088;-68
2024/03/16 06:08:55;;;;;;;;;;;;;;;18.47;42.52;98570.77;68312;1283;1016128;-68
2024/03/16 06:11:58;;;;;;;;;;;;;;;18.59;42.27;98576.41;68301;1283;1015587;-68
2024/03/16 06:15:00;;;;;;;;;;;;;;;18.62;42.24;98579.98;68309;1283;1016000;-68
2024/03/16 06:18:04;;;;;;;;;;;;;;;18.72;42.38;98583.38;68305;1283;1016289;-68
2024/03/16 06:21:08;;;;;;;;;;;;;;;18.79;42.23;98581.27;68298;1283;1015336;-65
2024/03/16 06:24:11;;;;;;;;;;;;;;;18.92;42.04;98579.52;68313;1283;1014310;-68
2024/03/16 06:27:18;;;;;;;;;;;;;;;19.15;41.77;98582.73;68296;1283;1015585;-68
2024/03/16 06:30:21;;;;;;;;;;;;;;;19.12;41.92;98586.60;68320;1283;1015469;-67
2024/03/16 06:33:30;;;;;;;;;;;;;;;19.09;42.03;98587.38;68309;1283;1015788;-68
2024/03/16 06:36:32;;;;;;;;;;;;;;;19.27;41.94;98591.44;68298;1283;1015356;-68
2024/03/16 06:39:34;;;;;;;;;;;;;;;19.29;42.11;98597.87;68312;1283;1015602;-68
2024/03/16 06:42:37;;;;;;;;;;;;;;;19.33;42.32;98595.84;68308;1283;1015976;-68
2024/03/16 06:45:39;;;;;;;;;;;;;;;19.39;42.15;98598.23;68304;1283;1016317;-68
2024/03/16 06:48:42;;;;;;;;;;;;;;;19.30;42.40;98604.63;68288;1283;1015897;-63
2024/03/16 06:51:44;;;;;;;;;;;;;;;19.24;42.63;98602.76;68294;1283;1016199;-68
2024/03/16 06:54:48;;;;;;;;;;;;;;;19.43;42.51;98604.88;68306;1283;1015922;-68
2024/03/16 06:57:50;;;;;;;;;;;;;;;19.65;42.19;98604.52;68307;1283;1014864;-68
2024/03/16 07:00:53;;;;;;;;;;;;;;;19.56;42.15;98609.62;68301;1283;1014985;-68
2024/03/16 07:03:55;;;;;;;;;;;;;;;19.52;42.69;98610.95;68325;1283;1015559;-68
2024/03/16 07:06:58;;;;;;;;;;;;;;;19.81;41.99;98610.81;68308;1283;1015687;-68
2024/03/16 07:10:00;;;;;;;;;;;;;;;20.01;42.01;98617.68;68293;1283;1016187;-68
2024/03/16 07:13:03;;;;;;;;;;;;;;;20.33;41.87;98614.67;68303;1283;1015861;-68
2024/03/16 07:16:05;;;;;;;;;;;;;;;20.46;41.87;98611.86;68307;1283;1015930;-68
2024/03/16 07:19:08;;;;;;;;;;;;;;;20.58;41.66;98618.16;68305;1283;1015729;-67
2024/03/16 07:22:12;;;;;;;;;;;;;;;20.76;41.64;98607.70;68311;1283;1015551;-67
2024/03/16 07:25:15;;;;;;;;;;;;;;;20.91;41.39;98617.08;68307;1283;1016016;-67
2024/03/16 07:28:18;;;;;;;;;;;;;;;20.99;41.42;98618.25;68319;1283;1016119;-68
2024/03/16 07:31:20;;;;;;;;;;;;;;;20.98;41.73;98620.12;68313;1283;1016090;-68
2024/03/16 07:34:23;;;;;;;;;;;;;;;21.04;41.97;98623.23;68300;1283;1015920;-68
2024/03/16 07:37:25;;;;;;;;;;;;;;;21.15;41.62;98627.80;68299;1283;1015519;-68
2024/03/16 07:40:28;;;;;;;;;;;;;;;20.60;42.98;98632.42;68297;1283;1016099;-68
2024/03/16 07:43:30;;;;;;;;;;;;;;;21.19;41.99;98635.86;68298;1283;1015569;-67
2024/03/16 07:46:33;;;;;;;;;;;;;;;21.31;41.93;98634.70;68308;1283;1015809;-68
2024/03/16 07:49:35;;;;;;;;;;;;;;;21.48;41.55;98636.46;68307;1283;1015989;-69
2024/03/16 07:52:38;;;;;;;;;;;;;;;21.00;42.65;98639.48;68308;1282;1015166;-68
2024/03/16 07:55:41;;;;;;;;;;;;;;;21.00;42.75;98639.27;68305;1283;1015365;-68
2024/03/16 07:58:43;;;;;;;;;;;;;;;21.28;42.58;98639.97;68305;1283;1016047;-68
2024/03/16 08:01:46;;;;;;;;;;;;;;;21.15;42.98;98641.42;68309;1283;1015771;-68
2024/03/16 08:04:48;;;;;;;;;;;;;;;21.45;42.40;98640.35;68313;1283;1015487;-68
2024/03/16 08:07:51;;;;;;;;;;;;;;;21.56;42.33;98639.84;68296;1283;1015502;-68
2024/03/16 08:10:54;;;;;;;;;;;;;;;21.80;42.28;98640.41;68296;1283;1015727;-67
2024/03/16 08:13:57;;;;;;;;;;;;;;;22.04;42.30;98642.23;68314;1283;1015491;-68
2024/03/16 08:16:59;;;;;;;;;;;;;;;22.67;41.57;98639.46;68277;1283;1015883;-63
2024/03/16 08:20:02;;;;;;;;;;;;;;;22.90;41.73;98635.23;68279;1283;1016148;-67
2024/03/16 08:23:05;;;;;;;;;;;;;;;23.43;40.95;98632.02;68281;1283;1015820;-64
2024/03/16 08:26:08;;;;;;;;;;;;;;;23.85;40.36;98628.38;68289;1283;1015372;-68
2024/03/16 08:29:11;;;;;;;;;;;;;;;24.18;39.90;98628.75;68280;1283;1015889;-68
2024/03/16 08:32:14;;;;;;;;;;;;;;;24.48;39.71;98627.07;68285;1283;1015590;-68
2024/03/16 08:35:16;;;;;;;;;;;;;;;24.84;39.15;98626.50;68288;1283;1015818;-66
2024/03/16 08:38:19;;;;;;;;;;;;;;;25.05;38.69;98623.52;68281;1283;1016657;-65
2024/03/16 08:41:23;;;;;;;;;;;;;;;24.94;38.65;98629.95;68286;1283;1016042;-64
2024/03/16 08:44:28;;;;;;;;;;;;;;;24.91;37.44;98634.80;68276;1283;1015397;-67
2024/03/16 08:47:30;;;;;;;;;;;;;;;24.78;39.27;98631.17;68284;1283;1015766;-67
2024/03/16 08:50:33;;;;;;;;;;;;;;;25.27;37.83;98627.00;68287;1283;1015661;-65
2024/03/16 08:53:35;;;;;;;;;;;;;;;25.06;37.84;98624.15;68293;1283;1015738;-65
2024/03/16 08:56:38;;;;;;;;;;;;;;;24.96;37.89;98628.39;68266;1283;1014880;-64
2024/03/16 08:59:40;;;;;;;;;;;;;;;24.20;38.37;98632.23;68262;1283;1016214;-64
2024/03/16 09:02:43;;;;;;;;;;;;;;;24.02;38.83;98637.67;68261;1283;1016182;-65
2024/03/16 09:05:46;;;;;;;;;;;;;;;24.55;38.63;98626.10;68259;1283;1015353;-64
2024/03/16 09:08:48;;;;;;;;;;;;;;;24.69;38.83;98626.95;68266;1283;1015817;-67
2024/03/16 09:11:51;;;;;;;;;;;;;;;24.16;38.76;98634.20;68261;1283;1016054;-64
2024/03/16 09:14:53;;;;;;;;;;;;;;;23.85;39.82;98629.36;68292;1283;1016154;-65
2024/03/16 09:17:56;;;;;;;;;;;;;;;24.39;39.65;98631.30;68293;1283;1015954;-67
2024/03/16 09:20:58;;;;;;;;;;;;;;;24.97;38.03;98631.73;68273;1283;1016314;-65
2024/03/16 09:24:02;;;;;;;;;;;;;;;24.73;37.96;98632.98;68284;1283;1015829;-64
2024/03/16 09:27:05;;;;;;;;;;;;;;;24.45;38.31;98629.09;68283;1283;1015725;-67
2024/03/16 09:30:11;;;;;;;;;;;;;;;24.22;38.03;98635.77;68299;1283;1015986;-68
2024/03/16 09:36:37;;;;;;;;;;;;;;;24.50;37.97;98623.33;68274;1283;1016520;-67
2024/03/16 09:39:42;;;;;;;;;;;;;;;24.53;37.99;98627.61;68273;1283;1016280;-64
2024/03/16 09:42:44;;;;;;;;;;;;;;;24.72;38.28;98630.33;68289;1283;1015464;-64
2024/03/16 09:45:47;;;;;;;;;;;;;;;24.22;38.74;98631.15;68273;1283;1016140;-65
2024/03/16 09:48:50;;;;;;;;;;;;;;;24.47;38.64;98627.06;68272;1283;1015666;-67
2024/03/16 09:51:52;;;;;;;;;;;;;;;25.39;37.76;98619.00;68282;1283;1015755;-68
2024/03/16 09:54:57;;;;;;;;;;;;;;;25.67;37.00;98617.78;68276;1283;1015636;-64
2024/03/16 09:58:00;;;;;;;;;;;;;;;25.40;36.32;98624.01;68290;1283;1016303;-68
2024/03/16 10:01:03;;;;;;;;;;;;;;;25.27;36.84;98619.39;68275;1283;1015598;-68
2024/03/16 10:04:05;;;;;;;;;;;;;;;24.96;37.09;98621.34;68291;1283;1015105;-65
2024/03/16 10:07:08;;;;;;;;;;;;;;;24.88;37.21;98624.85;68287;1283;1016317;-68
2024/03/16 10:10:10;;;;;;;;;;;;;;;25.09;37.15;98611.95;68285;1283;1015927;-67
2024/03/16 10:13:13;;;;;;;;;;;;;;;25.19;36.58;98620.39;68281;1283;1016266;-67
2024/03/16 10:16:16;;;;;;;;;;;;;;;25.10;36.74;98615.39;68276;1283;1014679;-68
2024/03/16 10:19:20;;;;;;;;;;;;;;;25.12;37.17;98617.61;68278;1283;1015633;-68
2024/03/16 10:22:22;;;;;;;;;;;;;;;25.22;36.93;98619.68;68285;1283;1015624;-67
2024/03/16 10:25:25;;;;;;;;;;;;;;;25.60;36.64;98618.52;68280;1283;1015629;-68
2024/03/16 10:28:27;;;;;;;;;;;;;;;25.60;37.82;98610.74;68284;1283;1016073;-67
2024/03/16 10:31:30;;;;;;;;;;;;;;;26.22;37.15;98608.70;68298;1283;1015522;-67
2024/03/16 10:34:34;;;;;;;;;;;;;;;26.31;36.36;98609.72;68287;1283;1015838;-65
2024/03/16 10:37:38;;;;;;;;;;;;;;;25.96;35.37;98615.51;68286;1283;1015566;-67
2024/03/16 10:40:41;;;;;;;;;;;;;;;25.63;35.96;98610.02;68280;1283;1016099;-68
2024/03/16 10:43:43;;;;;;;;;;;;;;;26.15;35.33;98608.09;68291;1283;1015767;-67
2024/03/16 10:46:46;;;;;;;;;;;;;;;26.39;35.33;98602.96;68289;1283;1015327;-64
2024/03/16 10:49:49;;;;;;;;;;;;;;;26.33;34.27;98598.39;68288;1283;1015303;-66
2024/03/16 10:52:52;;;;;;;;;;;;;;;26.31;35.13;98601.79;68280;1283;1015736;-65
2024/03/16 10:55:54;;;;;;;;;;;;;;;26.46;35.07;98597.22;68282;1283;1015974;-67
2024/03/16 10:58:56;;;;;;;;;;;;;;;26.59;34.75;98592.27;68296;1283;1015856;-67
2024/03/16 11:01:59;;;;;;;;;;;;;;;26.34;33.85;98595.18;68297;1283;1015417;-67
2024/03/16 11:05:02;;;;;;;;;;;;;;;26.48;34.24;98579.89;68283;1283;1015876;-67
2024/03/16 11:08:05;;;;;;;;;;;;;;;26.68;33.18;98586.98;68289;1283;1016088;-64
2024/03/16 11:11:08;;;;;;;;;;;;;;;26.77;33.55;98586.77;68287;1283;1015777;-67
2024/03/16 11:14:11;;;;;;;;;;;;;;;26.69;33.67;98587.73;68276;1283;1016247;-67
2024/03/16 11:17:13;;;;;;;;;;;;;;;26.78;33.91;98590.52;68276;1283;1015404;-67
2024/03/16 11:20:16;;;;;;;;;;;;;;;26.63;33.66;98593.25;68284;1283;1015691;-65
2024/03/16 11:23:19;;;;;;;;;;;;;;;26.95;33.75;98585.58;68293;1283;1016081;-66
2024/03/16 11:26:24;;;;;;;;;;;;;;;26.89;33.65;98588.48;68277;1283;1015875;-68
2024/03/16 11:29:28;;;;;;;;;;;;;;;27.09;32.57;98588.00;68296;1283;1014902;-67
2024/03/16 11:32:33;;;;;;;;;;;;;;;27.05;32.65;98586.89;68275;1283;1015800;-67
2024/03/16 11:35:36;;;;;;;;;;;;;;;26.68;33.04;98597.24;68273;1283;1016183;-66
2024/03/16 11:38:39;;;;;;;;;;;;;;;26.52;33.55;98594.94;68286;1283;1014475;-65
2024/03/16 11:41:44;;;;;;;;;;;;;;;26.61;33.38;98587.16;68278;1283;1015559;-65
2024/03/16 11:44:49;;;;;;;;;;;;;;;26.51;33.34;98594.29;68286;1283;1015283;-67
2024/03/16 11:47:52;;;;;;;;;;;;;;;26.20;33.53;98592.86;68293;1283;1016110;-67
2024/03/16 11:50:54;;;;;;;;;;;;;;;26.04;33.72;98590.33;68290;1283;1015624;-65
2024/03/16 11:53:58;;;;;;;;;;;;;;;25.92;34.51;98587.33;68293;1283;1015856;-65
2024/03/16 11:57:01;;;;;;;;;;;;;;;26.46;34.35;98581.39;68305;1283;1015824;-64
2024/03/16 12:00:04;;;;;;;;;;;;;;;27.06;33.19;98577.03;68281;1283;1015848;-64
2024/03/16 12:03:15;;;;;;;;;;;;;;;27.26;33.44;98575.27;68287;1283;1014424;-65
2024/03/16 12:06:17;;;;;;;;;;;;;;;27.51;32.81;98572.73;68281;1283;1015846;-65
2024/03/16 12:09:30;;;;;;;;;;;;;;;27.95;32.55;98569.16;68297;1283;1015776;-65
2024/03/16 12:12:33;;;;;;;;;;;;;;;28.68;32.29;98561.88;68287;1283;1016318;-67
2024/03/16 12:15:35;;;;;;;;;;;;;;;28.67;30.88;98560.27;68276;1283;1015491;-64
2024/03/16 12:18:38;;;;;;;;;;;;;;;28.79;31.75;98566.00;68272;1283;1015690;-64
2024/03/16 12:21:41;;;;;;;;;;;;;;;28.81;31.51;98565.41;68290;1283;1016109;-67
2024/03/16 12:24:43;;;;;;;;;;;;;;;28.85;31.60;98564.42;68292;1283;1015887;-64
2024/03/16 12:27:46;;;;;;;;;;;;;;;28.80;31.45;98561.52;68299;1283;1015328;-64
2024/03/16 12:30:49;;;;;;;;;;;;;;;29.11;31.47;98559.52;68280;1283;1015616;-67
2024/03/16 12:33:52;;;;;;;;;;;;;;;28.87;31.93;98561.95;68293;1283;1015506;-67
2024/03/16 12:36:55;;;;;;;;;;;;;;;28.35;32.20;98561.41;68283;1283;1015909;-65
2024/03/16 12:39:58;;;;;;;;;;;;;;;28.03;31.88;98564.04;68281;1283;1016018;-66
2024/03/16 12:43:00;;;;;;;;;;;;;;;27.70;32.26;98559.02;68272;1283;1016213;-68
2024/03/16 12:46:04;;;;;;;;;;;;;;;27.52;31.43;98565.89;68282;1283;1015705;-67
2024/03/16 12:49:07;;;;;;;;;;;;;;;27.08;31.62;98562.83;68285;1283;1015763;-67
2024/03/16 12:52:09;;;;;;;;;;;;;;;27.07;32.06;98554.50;68276;1283;1016011;-67
2024/03/16 12:55:12;;;;;;;;;;;;;;;26.58;32.23;98549.71;68283;1283;1015684;-64
2024/03/16 12:58:15;;;;;;;;;;;;;;;26.81;32.43;98545.63;68275;1283;1015528;-64
2024/03/16 13:01:19;;;;;;;;;;;;;;;26.75;32.33;98539.95;68293;1283;1015866;-67
2024/03/16 13:04:22;;;;;;;;;;;;;;;27.09;32.84;98542.25;68280;1283;1016418;-67
2024/03/16 13:07:24;;;;;;;;;;;;;;;27.97;32.03;98537.60;68278;1283;1015554;-64
2024/03/16 13:10:27;;;;;;;;;;;;;;;28.31;31.28;98533.23;68289;1283;1015375;-68
2024/03/16 13:13:29;;;;;;;;;;;;;;;28.34;30.95;98535.87;68289;1283;1016249;-67
2024/03/16 13:16:32;;;;;;;;;;;;;;;28.08;30.91;98539.18;68285;1283;1015794;-64
2024/03/16 13:19:35;;;;;;;;;;;;;;;27.54;31.36;98533.48;68277;1283;1015457;-67
2024/03/16 13:22:37;;;;;;;;;;;;;;;27.25;31.83;98534.88;68282;1283;1015752;-67
2024/03/16 13:25:40;;;;;;;;;;;;;;;26.92;31.85;98539.10;68288;1283;1015828;-68
2024/03/16 13:28:42;;;;;;;;;;;;;;;26.48;32.33;98536.89;68285;1283;1015522;-66
2024/03/16 13:31:45;;;;;;;;;;;;;;;26.51;32.33;98538.52;68283;1283;1016174;-65
2024/03/16 13:34:47;;;;;;;;;;;;;;;26.37;32.45;98539.02;68264;1283;1015370;-67
2024/03/16 13:37:50;;;;;;;;;;;;;;;25.99;32.76;98539.87;68295;1283;1015372;-64
2024/03/16 13:40:52;;;;;;;;;;;;;;;25.94;33.04;98544.10;68285;1283;1015452;-67
2024/03/16 13:43:55;;;;;;;;;;;;;;;25.94;33.37;98546.09;68285;1283;1016032;-64
2024/03/16 13:46:58;;;;;;;;;;;;;;;25.90;33.70;98543.11;68276;1283;1015944;-68
2024/03/16 13:50:00;;;;;;;;;;;;;;;26.00;34.41;98537.73;68270;1283;1015610;-64
2024/03/16 13:53:03;;;;;;;;;;;;;;;25.96;34.16;98536.34;68288;1283;1015767;-66
2024/03/16 13:56:06;;;;;;;;;;;;;;;26.35;33.83;98531.61;68285;1283;1015532;-65
2024/03/16 13:59:10;;;;;;;;;;;;;;;26.54;33.93;98531.25;68291;1283;1016026;-67
2024/03/16 14:02:14;;;;;;;;;;;;;;;26.29;33.28;98532.89;68293;1283;1015652;-68
2024/03/16 14:05:16;;;;;;;;;;;;;;;26.03;33.95;98532.54;68291;1283;1015329;-68
2024/03/16 14:08:20;;;;;;;;;;;;;;;25.73;34.01;98537.49;68292;1283;1015814;-68
2024/03/16 14:11:22;;;;;;;;;;;;;;;25.34;34.80;98542.66;68295;1283;1014928;-67
2024/03/16 14:14:25;;;;;;;;;;;;;;;24.67;36.07;98559.55;68287;1283;1015761;-66
2024/03/16 14:17:27;;;;;;;;;;;;;;;24.03;37.23;98561.81;68276;1283;1016086;-68
2024/03/16 14:20:31;;;;;;;;;;;;;;;23.85;37.90;98556.77;68284;1283;1014496;-67
2024/03/16 14:23:35;;;;;;;;;;;;;;;23.73;37.72;98544.20;68287;1283;1015756;-68
2024/03/16 14:26:41;;;;;;;;;;;;;;;23.95;37.29;98536.52;68279;1283;1016065;-67
2024/03/16 14:29:44;;;;;;;;;;;;;;;24.16;37.09;98534.37;68286;1283;1015829;-67
2024/03/16 14:32:47;;;;;;;;;;;;;;;24.46;37.25;98534.23;68285;1283;1015874;-67
2024/03/16 14:35:51;;;;;;;;;;;;;;;24.73;37.63;98526.99;68285;1283;1016199;-64
2024/03/16 14:38:53;;;;;;;;;;;;;;;25.11;37.77;98527.98;68288;1283;1015342;-68
2024/03/16 14:41:56;;;;;;;;;;;;;;;25.15;38.15;98522.80;68271;1283;1016036;-66
2024/03/16 14:44:59;;;;;;;;;;;;;;;25.11;38.63;98518.36;68286;1283;1016241;-67
2024/03/16 14:48:01;;;;;;;;;;;;;;;25.25;38.59;98518.67;68280;1283;1015173;-64
2024/03/16 14:51:03;;;;;;;;;;;;;;;25.28;38.82;98521.21;68286;1283;1015836;-63
2024/03/16 14:54:06;;;;;;;;;;;;;;;25.03;39.15;98531.80;68286;1283;1015354;-64
2024/03/16 14:57:09;;;;;;;;;;;;;;;25.02;39.10;98534.52;68284;1283;1015521;-63
2024/03/16 15:00:14;;;;;;;;;;;;;;;24.95;39.26;98537.84;68299;1283;1016089;-68
2024/03/16 15:03:17;;;;;;;;;;;;;;;24.63;39.52;98543.84;68274;1283;1015221;-68
2024/03/16 15:06:19;;;;;;;;;;;;;;;24.11;40.62;98553.06;68294;1283;1015375;-63
2024/03/16 15:09:22;;;;;;;;;;;;;;;23.20;39.92;98560.62;68292;1283;1015062;-63
2024/03/16 15:12:24;;;;;;;;;;;;;;;22.69;41.05;98565.27;68282;1283;1016161;-66
2024/03/16 15:15:27;;;;;;;;;;;;;;;22.55;41.62;98563.66;68286;1283;1015364;-68
2024/03/16 15:18:29;;;;;;;;;;;;;;;22.54;41.86;98565.95;68297;1283;1015990;-64
2024/03/16 15:21:32;;;;;;;;;;;;;;;22.33;42.35;98569.85;68295;1283;1015216;-63
2024/03/16 15:24:36;;;;;;;;;;;;;;;22.37;42.28;98570.73;68279;1283;1015597;-68
2024/03/16 15:27:55;;;;;;;;;;;;;;;22.03;42.44;98574.71;68289;1283;1015423;-64
2024/03/16 15:30:57;;;;;;;;;;;;;;;21.74;42.73;98569.31;68285;1283;1015714;-65
2024/03/16 15:34:00;;;;;;;;;;;;;;;21.34;43.48;98576.13;68286;1283;1015712;-67